This is the latest recevied weather packets stored in our database for station/object W9LRT-WX. If no packets are shown the sender has not sent any weather packets the latest 10 day(s).
| Time | Temp. | Humidity | Pressure | Rain* | Wind** | Luminosity | Snow |
|---|---|---|---|---|---|---|---|
| 1777655010 | 9.44° C | 55% | 1014.1 hPa | 0 mm | - | 585 W/m² | - |
| 1777654112 | 9.44° C | 55% | 1014.2 hPa | 0 mm | - | 930 W/m² | - |
| 1777653211 | 8.89° C | 56% | 1014.2 hPa | 0 mm | - | 415 W/m² | - |
| 1777652310 | 9.44° C | 57% | 1014 hPa | 0 mm | - | 986 W/m² | - |
| 1777651411 | 10° C | 59% | 1014 hPa | 0 mm | - | 795 W/m² | - |
| 1777650511 | 8.89° C | 58% | 1014 hPa | 0 mm | - | 816 W/m² | - |
| 1777649611 | 8.33° C | 58% | 1014 hPa | 0 mm | - | 782 W/m² | - |
| 1777648710 | 8.33° C | 69% | 1014 hPa | 0 mm | - | 802 W/m² | - |
| 1777647811 | 7.22° C | 75% | 1014 hPa | 0 mm | - | 241 W/m² | - |
| 1777646910 | 7.78° C | 75% | 1013.9 hPa | 0 mm | - | 489 W/m² | - |
| 1777646011 | 6.67° C | 81% | 1013.8 hPa | 0 mm | - | 425 W/m² | - |
| 1777645111 | 5.56° C | 85% | 1013.8 hPa | 0 mm | - | 181 W/m² | - |
| 1777644212 | 5.56° C | 88% | 1013.7 hPa | 0 mm | - | 179 W/m² | - |
| 1777643310 | 5° C | 92% | 1013.6 hPa | 0 mm | - | 244 W/m² | - |
| 1777642410 | 4.44° C | 92% | 1013.7 hPa | 0 mm | - | 183 W/m² | - |
| 1777641511 | 4.44° C | 93% | 1013.6 hPa | 0 mm | - | 287 W/m² | - |
| 1777640610 | 3.33° C | 93% | 1013.7 hPa | 0 mm | - | 153 W/m² | - |
| 1777639713 | 3.33° C | 94% | 1013.8 hPa | 0 mm | - | 84 W/m² | - |
| 1777638809 | 2.78° C | 94% | 1013.5 hPa | 0 mm | - | 91 W/m² | - |
| 1777637910 | 2.78° C | 94% | 1013.3 hPa | 0 mm | - | 74 W/m² | - |
| 1777637009 | 2.78° C | 94% | 1013.3 hPa | 0 mm | - | 26 W/m² | - |
| 1777636110 | 2.78° C | 94% | 1012.9 hPa | 0 mm | - | 23 W/m² | - |
| 1777635209 | 2.78° C | 94% | 1012.5 hPa | 0 mm | - | 12 W/m² | - |
| 1777634309 | 2.22° C | 94% | 1012.3 hPa | 0 mm | - | 9 W/m² | - |
| 1777633410 | 2.22° C | 94% | 1012 hPa | 0 mm | - | 5 W/m² | - |
* Rain latest hour (hover to see other rain measurements)
** Current wind speed in m/s (hover to see current wind gust speed)